METAR Data

Data at: 2337 UTC 26 Feb 2020

METAR for:CYCX (Gagetown (MIL), NB, CN)
Text:CYCX 262300Z 05003KT 15SM BKN090 06/M05 A3008 RMK AC7 DA-1059FT SLP190
Temperature: 6.0°C ( 43°F)
Dewpoint: -5.0°C ( 23°F) [RH = 45%]
Pressure (altimeter):30.08 inches Hg (1018.7 mb) [Sea level pressure: 1019.0 mb]
Winds:from the NE (50 degrees) at 3 MPH (3 knots; 1.5 m/s)
Visibility: 15 sm ( 24 km)
Ceiling:9000 feet AGL
Clouds: broken clouds at 9000 feet AGL